Time;durP1;ratioP1;P1;durP2;ratioP2;P2;SDS_P1;SDS_P2;PMS_P1;PMS_P2;Temp;Humidity;BMP_temperature;BMP_pressure;BME280_temperature;BME280_humidity;BME280_pressure;Samples;Min_cycle;Max_cycle;Signal;HPM_P1;HPM_P2
2022/09/20 00:01:31;;;;;;;0.45;0.45;;;8.70;99.90;;;;;;5047235;28;20118;-91
2022/09/20 00:04:00;;;;;;;0.50;0.50;;;8.70;99.90;;;;;;5042910;28;20040;-89
2022/09/20 00:06:28;;;;;;;0.32;0.32;;;8.60;99.90;;;;;;5056334;28;20049;-89
2022/09/20 00:08:55;;;;;;;0.43;0.43;;;8.50;99.90;;;;;;5041311;28;20037;-91
2022/09/20 00:11:24;;;;;;;0.50;0.50;;;8.50;99.90;;;;;;5083476;28;20075;-89
2022/09/20 00:13:51;;;;;;;0.45;0.45;;;8.40;99.90;;;;;;5054882;28;20470;-88
2022/09/20 00:16:32;;;;;;;0.47;0.47;;;8.30;99.90;;;;;;5037850;28;20173;-86
2022/09/20 00:19:00;;;;;;;0.50;0.50;;;8.40;99.90;;;;;;5081333;28;20045;-88
2022/09/20 00:21:28;;;;;;;0.70;0.70;;;8.40;99.90;;;;;;5070477;28;20059;-88
2022/09/20 00:23:56;;;;;;;0.40;0.40;;;8.30;99.90;;;;;;5053809;28;20040;-89
2022/09/20 00:26:22;;;;;;;0.60;0.60;;;8.40;99.90;;;;;;5036825;28;20044;-90
2022/09/20 00:28:48;;;;;;;;;;;8.40;99.90;;;;;;5073030;28;20098;-89
2022/09/20 00:31:14;;;;;;;0.80;0.80;;;8.50;99.90;;;;;;5062882;28;20291;-88
2022/09/20 00:36:24;;;;;;;0.40;0.40;;;8.50;99.90;;;;;;5057645;28;20481;-88
2022/09/20 00:38:57;;;;;;;0.60;0.60;;;8.30;99.90;;;;;;5062570;28;20039;-87
2022/09/20 00:41:24;;;;;;;0.45;0.45;;;8.30;99.90;;;;;;5071324;28;20105;-90
2022/09/20 00:43:50;;;;;;;0.50;0.50;;;8.30;99.90;;;;;;5058791;28;20095;-87
2022/09/20 00:46:36;;;;;;;0.50;0.50;;;8.40;99.90;;;;;;5061177;28;20048;-85
2022/09/20 00:49:14;;;;;;;0.30;0.30;;;8.50;99.90;;;;;;5067843;28;20045;-88
2022/09/20 00:51:44;;;;;;;0.40;0.40;;;8.50;99.90;;;;;;5062880;28;20032;-86
2022/09/20 00:54:12;;;;;;;0.50;0.50;;;8.50;99.90;;;;;;5045275;28;20502;-86
2022/09/20 00:56:40;;;;;;;0.47;0.47;;;8.40;99.90;;;;;;5078891;28;20079;-87
2022/09/20 00:59:29;;;;;;;0.50;0.50;;;8.60;99.90;;;;;;5065242;28;20040;-86
2022/09/20 01:02:05;;;;;;;0.60;0.60;;;8.40;99.90;;;;;;5064623;28;20049;-85
2022/09/20 01:04:33;;;;;;;0.40;0.40;;;8.40;99.90;;;;;;5057194;28;20121;-87
2022/09/20 01:07:03;;;;;;;0.50;0.50;;;8.30;99.90;;;;;;5067405;28;20449;-88
2022/09/20 01:09:28;;;;;;;0.40;0.40;;;8.20;99.90;;;;;;5069744;28;20049;-88
2022/09/20 01:11:57;;;;;;;0.50;0.50;;;8.10;99.90;;;;;;5064028;28;20036;-88
2022/09/20 01:14:25;;;;;;;0.50;0.50;;;8.10;99.90;;;;;;5061934;28;20051;-89
2022/09/20 01:16:53;;;;;;;0.63;0.63;;;8.00;99.90;;;;;;5066384;28;20091;-89
2022/09/20 01:19:30;;;;;;;0.50;0.50;;;7.90;99.90;;;;;;5033427;28;20120;-89
2022/09/20 01:21:56;;;;;;;0.50;0.50;;;7.70;99.90;;;;;;5049360;28;20055;-87
2022/09/20 01:24:48;;;;;;;0.60;0.60;;;7.60;99.90;;;;;;5042386;28;20052;-89
2022/09/20 01:27:34;;;;;;;0.40;0.40;;;7.50;99.90;;;;;;5062369;28;20032;-88
2022/09/20 01:30:12;;;;;;;0.60;0.60;;;7.40;99.90;;;;;;5074937;28;20097;-90
2022/09/20 01:32:41;;;;;;;0.60;0.60;;;7.40;99.90;;;;;;5056899;28;20043;-91
2022/09/20 01:35:08;;;;;;;0.60;0.60;;;7.90;99.90;;;;;;5057158;28;20474;-88
2022/09/20 01:38:03;;;;;;;0.60;0.60;;;7.20;99.90;;;;;;5072749;28;20389;-91
2022/09/20 01:40:54;;;;;;;0.60;0.60;;;7.10;99.90;;;;;;5055621;28;20032;-87
2022/09/20 01:44:09;;;;;;;0.45;0.45;;;7.10;99.90;;;;;;5078567;28;20037;-91
2022/09/20 01:46:35;;;;;;;0.50;0.50;;;6.90;99.90;;;;;;5041617;28;20038;-87
2022/09/20 01:49:12;;;;;;;0.45;0.45;;;6.90;99.90;;;;;;5025592;28;20051;-90
2022/09/20 01:52:16;;;;;;;0.63;0.63;;;6.90;99.90;;;;;;5063781;28;20533;-88
2022/09/20 01:55:14;;;;;;;0.43;0.43;;;6.90;99.90;;;;;;5051327;28;20123;-88
2022/09/20 01:58:01;;;;;;;0.55;0.55;;;6.90;99.90;;;;;;5032841;28;20037;-89
2022/09/20 02:00:56;;;;;;;0.50;0.50;;;6.80;99.90;;;;;;5084563;28;20044;-87
2022/09/20 02:03:31;;;;;;;0.57;0.57;;;6.70;99.90;;;;;;5079491;28;20051;-91
2022/09/20 02:06:00;;;;;;;0.47;0.47;;;6.60;99.90;;;;;;5057544;28;20403;-89
2022/09/20 02:08:34;;;;;;;0.50;0.50;;;6.60;99.90;;;;;;5083425;28;20445;-89
2022/09/20 02:11:17;;;;;;;0.52;0.52;;;6.80;99.90;;;;;;5056707;28;20044;-91
2022/09/20 02:13:58;;;;;;;0.50;0.50;;;6.90;99.90;;;;;;5056741;28;20417;-87
2022/09/20 02:17:14;;;;;;;0.50;0.50;;;7.00;99.90;;;;;;5055884;28;20044;-88
2022/09/20 02:20:01;;;;;;;0.50;0.50;;;7.00;99.90;;;;;;5025351;28;20131;-89
2022/09/20 02:22:36;;;;;;;0.68;0.68;;;7.00;99.90;;;;;;5046219;28;20048;-89
2022/09/20 02:25:19;;;;;;;0.60;0.60;;;6.90;99.90;;;;;;5071569;28;20482;-89
2022/09/20 02:28:07;;;;;;;0.57;0.57;;;6.90;99.90;;;;;;5054610;28;20044;-88
2022/09/20 02:31:14;;;;;;;0.40;0.40;;;6.90;99.90;;;;;;5051912;28;20406;-91
2022/09/20 02:34:09;;;;;;;0.50;0.50;;;7.00;99.90;;;;;;5055513;28;20040;-88
2022/09/20 02:36:51;;;;;;;0.50;0.50;;;7.00;99.90;;;;;;5061350;28;20040;-88
2022/09/20 02:39:21;;;;;;;0.50;0.50;;;7.10;99.90;;;;;;5067048;28;20095;-88
2022/09/20 02:42:32;;;;;;;0.50;0.50;;;7.00;99.90;;;;;;5072484;28;20041;-87
2022/09/20 02:45:17;;;;;;;0.50;0.50;;;6.90;99.90;;;;;;5070489;28;20060;-89
2022/09/20 02:47:43;;;;;;;0.50;0.50;;;6.70;99.90;;;;;;5067439;28;20068;-90
2022/09/20 02:50:31;;;;;;;0.60;0.60;;;6.70;99.90;;;;;;5071400;28;20194;-89
2022/09/20 02:52:59;;;;;;;0.50;0.50;;;7.10;99.90;;;;;;5066543;28;20123;-89
2022/09/20 02:55:40;;;;;;;0.60;0.60;;;6.70;99.90;;;;;;5053989;28;20387;-88
2022/09/20 02:58:32;;;;;;;0.50;0.50;;;6.60;99.90;;;;;;5072628;28;20083;-89
2022/09/20 03:01:23;;;;;;;0.60;0.60;;;6.60;99.90;;;;;;5032299;28;20063;-89
2022/09/20 03:04:10;;;;;;;0.40;0.40;;;6.50;99.90;;;;;;5070132;28;20046;-88
2022/09/20 03:06:48;;;;;;;0.50;0.50;;;6.40;99.90;;;;;;5070013;28;20095;-90
2022/09/20 03:09:37;;;;;;;0.60;0.60;;;6.30;99.90;;;;;;5050056;28;20067;-87
2022/09/20 03:12:08;;;;;;;0.50;0.50;;;6.70;99.90;;;;;;5052788;28;20127;-89
2022/09/20 03:15:16;;;;;;;0.50;0.50;;;6.20;99.90;;;;;;5050686;28;20047;-87
2022/09/20 03:18:04;;;;;;;0.50;0.50;;;6.20;99.90;;;;;;5064275;28;20045;-88
2022/09/20 03:21:08;;;;;;;0.65;0.65;;;6.20;99.90;;;;;;5065351;28;20032;-90
2022/09/20 03:23:59;;;;;;;0.40;0.40;;;6.20;99.90;;;;;;5066758;28;20041;-89
2022/09/20 03:27:07;;;;;;;0.57;0.57;;;6.30;99.90;;;;;;5054055;28;20079;-90
2022/09/20 03:29:47;;;;;;;0.60;0.60;;;6.20;99.90;;;;;;5075906;28;20086;-89
2022/09/20 03:32:38;;;;;;;0.40;0.40;;;6.20;99.90;;;;;;5079317;28;20037;-88
2022/09/20 03:35:18;;;;;;;0.45;0.45;;;6.10;99.90;;;;;;5081099;28;20040;-89
2022/09/20 03:37:44;;;;;;;0.60;0.60;;;6.10;99.90;;;;;;5073597;28;20119;-89
2022/09/20 03:40:34;;;;;;;0.50;0.50;;;6.10;99.90;;;;;;5051292;28;20080;-89
2022/09/20 03:43:14;;;;;;;2.70;1.98;;;6.20;99.90;;;;;;5043824;28;20082;-89
2022/09/20 03:46:05;;;;;;;0.60;0.60;;;6.40;99.90;;;;;;5073524;28;20043;-89
2022/09/20 03:48:42;;;;;;;0.60;0.60;;;6.60;99.90;;;;;;5068960;28;20040;-90
2022/09/20 03:51:45;;;;;;;0.47;0.47;;;6.70;99.90;;;;;;5060169;28;20051;-87
2022/09/20 03:54:32;;;;;;;0.60;0.60;;;6.70;99.90;;;;;;5066938;28;20047;-87
2022/09/20 03:57:34;;;;;;;0.60;0.60;;;6.70;99.90;;;;;;5074002;28;20040;-88
2022/09/20 04:00:22;;;;;;;0.55;0.55;;;6.70;99.90;;;;;;5052279;28;20123;-89
2022/09/20 04:03:01;;;;;;;0.70;0.70;;;6.90;99.90;;;;;;5058652;28;20067;-89
2022/09/20 04:06:15;;;;;;;0.52;0.52;;;7.00;99.90;;;;;;5067139;28;20391;-88
2022/09/20 04:09:26;;;;;;;0.50;0.50;;;7.10;99.90;;;;;;5072263;28;20041;-89
2022/09/20 04:12:30;;;;;;;0.60;0.60;;;7.10;99.90;;;;;;5036575;28;20052;-88
2022/09/20 04:15:22;;;;;;;0.50;0.50;;;7.00;99.90;;;;;;5063228;28;20513;-89
2022/09/20 04:18:09;;;;;;;0.50;0.50;;;7.00;99.90;;;;;;5066303;28;20049;-87
2022/09/20 04:21:01;;;;;;;0.60;0.60;;;6.90;99.90;;;;;;5051524;28;20047;-88
2022/09/20 04:23:58;;;;;;;0.60;0.60;;;6.90;99.90;;;;;;5072892;28;20037;-90
2022/09/20 04:26:30;;;;;;;6.30;1.60;;;6.80;99.90;;;;;;5067709;28;20059;-89
2022/09/20 04:29:22;;;;;;;0.50;0.50;;;6.70;99.90;;;;;;5038486;28;20040;-90
2022/09/20 04:31:58;;;;;;;0.50;0.50;;;6.90;99.90;;;;;;5095060;28;20055;-88
2022/09/20 04:37:46;;;;;;;0.60;0.60;;;6.70;99.90;;;;;;5075909;28;20171;-89
2022/09/20 04:40:43;;;;;;;0.50;0.50;;;6.70;99.90;;;;;;5052970;28;20047;-88
2022/09/20 04:43:27;;;;;;;0.50;0.50;;;6.70;99.90;;;;;;5061709;28;20048;-88
2022/09/20 04:46:02;;;;;;;0.40;0.40;;;6.60;99.90;;;;;;5071956;28;20072;-87
2022/09/20 04:48:53;;;;;;;0.60;0.60;;;6.50;99.90;;;;;;5063382;28;20119;-86
2022/09/20 04:51:19;;;;;;;0.57;0.57;;;6.50;99.90;;;;;;5071543;28;20115;-88
2022/09/20 04:53:56;;;;;;;0.50;0.50;;;6.40;99.90;;;;;;5053356;28;20430;-87
2022/09/20 04:56:28;;;;;;;0.55;0.55;;;6.40;99.90;;;;;;5057006;28;20047;-86
2022/09/20 04:59:19;;;;;;;0.50;0.50;;;6.50;99.90;;;;;;5052246;28;20040;-88
2022/09/20 05:02:02;;;;;;;0.75;0.75;;;6.60;99.90;;;;;;5069628;28;20047;-88
2022/09/20 05:05:05;;;;;;;0.50;0.50;;;6.80;99.90;;;;;;5047251;28;20045;-89
2022/09/20 05:07:59;;;;;;;0.60;0.60;;;7.00;99.90;;;;;;5072181;28;20086;-89
2022/09/20 05:10:43;;;;;;;0.57;0.57;;;7.20;99.90;;;;;;5061318;28;20048;-87
2022/09/20 05:13:26;;;;;;;0.60;0.60;;;7.30;99.90;;;;;;5064028;28;20035;-90
2022/09/20 05:16:27;;;;;;;0.68;0.68;;;7.50;99.90;;;;;;5064787;28;20637;-88
2022/09/20 05:19:13;;;;;;;0.63;0.63;;;7.60;99.90;;;;;;5062515;28;20063;-89
2022/09/20 05:22:17;;;;;;;0.40;0.40;;;7.70;99.90;;;;;;5064753;28;20069;-87
2022/09/20 05:24:58;;;;;;;0.45;0.45;;;7.90;99.90;;;;;;5063758;28;20051;-88
2022/09/20 05:27:47;;;;;;;0.70;0.70;;;8.10;99.90;;;;;;5046765;28;20033;-88
2022/09/20 05:30:44;;;;;;;0.50;0.50;;;8.20;99.90;;;;;;5060998;28;20044;-87
2022/09/20 05:33:19;;;;;;;0.50;0.50;;;8.40;99.90;;;;;;5045902;28;20520;-88
2022/09/20 05:35:46;;;;;;;0.40;0.40;;;8.50;99.90;;;;;;5046204;28;20068;-86
2022/09/20 05:38:28;;;;;;;0.85;0.85;;;8.60;99.90;;;;;;5045811;28;20040;-87
2022/09/20 05:41:30;;;;;;;0.40;0.40;;;8.70;99.90;;;;;;5059991;28;20131;-87
2022/09/20 05:43:59;;;;;;;0.55;0.55;;;8.80;99.90;;;;;;4996128;28;20064;-87
2022/09/20 05:46:33;;;;;;;0.45;0.45;;;8.80;99.90;;;;;;5044327;28;20047;-87
2022/09/20 05:49:23;;;;;;;0.40;0.40;;;8.80;99.90;;;;;;5058254;28;20115;-89
2022/09/20 05:52:12;;;;;;;0.40;0.40;;;8.70;99.90;;;;;;5059451;28;20106;-88
2022/09/20 05:55:06;;;;;;;0.50;0.50;;;8.80;99.90;;;;;;5056916;28;20390;-88
2022/09/20 05:58:01;;;;;;;0.47;0.47;;;8.80;99.90;;;;;;5038803;28;20828;-88
2022/09/20 06:00:34;;;;;;;0.50;0.50;;;8.50;99.90;;;;;;5000490;28;20474;-88
2022/09/20 06:03:54;;;;;;;0.32;0.32;;;8.50;99.90;;;;;;5051290;28;20405;-88
2022/09/20 06:07:01;;;;;;;0.50;0.50;;;8.50;99.90;;;;;;5042625;28;20052;-88
2022/09/20 06:10:06;;;;;;;0.50;0.50;;;8.50;99.90;;;;;;5039388;28;20045;-89
2022/09/20 06:12:51;;;;;;;0.50;0.50;;;8.60;99.90;;;;;;5046910;28;20036;-88
2022/09/20 06:15:51;;;;;;;0.40;0.40;;;8.60;99.90;;;;;;5059651;28;20524;-89
2022/09/20 06:18:40;;;;;;;0.50;0.50;;;8.80;99.90;;;;;;5059612;28;20127;-90
2022/09/20 06:21:49;;;;;;;0.70;0.70;;;9.00;99.90;;;;;;5050233;28;21434;-87
2022/09/20 06:24:40;;;;;;;0.50;0.50;;;9.30;99.90;;;;;;5062657;28;20410;-88
2022/09/20 06:27:13;;;;;;;0.40;0.40;;;9.60;99.90;;;;;;5063179;28;20083;-90
2022/09/20 06:29:44;;;;;;;0.40;0.40;;;9.90;99.90;;;;;;5051395;28;20143;-89
2022/09/20 06:32:14;;;;;;;0.50;0.50;;;10.10;99.90;;;;;;5088559;28;20044;-89
2022/09/20 06:34:40;;;;;;;0.40;0.40;;;10.20;99.90;;;;;;5074958;28;20037;-88
2022/09/20 06:43:30;;;;;;;0.50;0.50;;;10.40;99.90;;;;;;5064588;28;20053;-89
2022/09/20 06:45:56;;;;;;;0.38;0.38;;;10.40;99.90;;;;;;5047850;28;20056;-90
2022/09/20 06:48:23;;;;;;;;;;;10.40;99.90;;;;;;5015081;28;20040;-90
2022/09/20 06:50:51;;;;;;;0.40;0.40;;;10.40;99.90;;;;;;5017426;28;19920;-89
2022/09/20 06:53:32;;;;;;;0.40;0.40;;;10.40;99.90;;;;;;5050587;28;20037;-90
2022/09/20 06:55:59;;;;;;;0.70;0.70;;;10.40;99.90;;;;;;5046759;28;20046;-91
2022/09/20 06:58:25;;;;;;;0.50;0.50;;;10.40;99.90;;;;;;5029940;28;20040;-89
2022/09/20 07:00:52;;;;;;;0.40;0.40;;;10.50;99.90;;;;;;5052655;28;20040;-91
2022/09/20 07:03:18;;;;;;;0.40;0.40;;;10.40;99.90;;;;;;5051529;28;20071;-90
2022/09/20 07:05:45;;;;;;;0.43;0.43;;;10.50;99.90;;;;;;5063478;28;20053;-89
2022/09/20 07:08:11;;;;;;;0.50;0.50;;;10.50;99.90;;;;;;5053412;28;20444;-90
2022/09/20 07:10:37;;;;;;;;;;;10.50;99.90;;;;;;5067188;28;20043;-90
2022/09/20 07:13:04;;;;;;;1.42;0.60;;;10.50;99.90;;;;;;5065767;28;19958;-90
2022/09/20 07:15:33;;;;;;;0.35;0.35;;;10.50;99.90;;;;;;5053985;28;20033;-90
2022/09/20 07:17:59;;;;;;;0.40;0.40;;;10.50;99.90;;;;;;5065516;28;20029;-89
2022/09/20 07:20:25;;;;;;;0.50;0.50;;;10.40;99.90;;;;;;5054358;28;20129;-90
2022/09/20 07:22:52;;;;;;;0.40;0.40;;;10.50;99.90;;;;;;5044267;28;20033;-89
2022/09/20 07:25:18;;;;;;;0.30;0.30;;;10.40;99.90;;;;;;5027599;28;20076;-90
2022/09/20 07:27:45;;;;;;;0.40;0.40;;;10.40;99.90;;;;;;5040458;28;20398;-90
2022/09/20 07:30:13;;;;;;;0.30;0.30;;;10.40;99.90;;;;;;5049474;28;20551;-90
2022/09/20 07:32:39;;;;;;;0.40;0.40;;;10.40;99.90;;;;;;5040125;28;20098;-91
2022/09/20 07:35:09;;;;;;;0.52;0.52;;;10.40;99.90;;;;;;5026788;28;20040;-89
2022/09/20 07:37:35;;;;;;;0.40;0.40;;;10.40;99.90;;;;;;5059853;28;20037;-89
2022/09/20 07:40:02;;;;;;;0.45;0.45;;;10.50;99.90;;;;;;5054978;28;20055;-89
2022/09/20 07:42:28;;;;;;;0.40;0.40;;;10.60;99.90;;;;;;5042605;28;20048;-88
2022/09/20 07:44:54;;;;;;;0.40;0.40;;;10.70;99.90;;;;;;5028707;28;20426;-88
2022/09/20 07:47:24;;;;;;;;;;;10.90;99.90;;;;;;5029188;28;21569;-89
2022/09/20 07:49:50;;;;;;;0.40;0.40;;;10.90;99.90;;;;;;5057103;28;19924;-89
2022/09/20 07:52:16;;;;;;;0.30;0.30;;;11.30;99.90;;;;;;5056869;28;20064;-89
2022/09/20 07:54:42;;;;;;;0.57;0.57;;;10.70;99.90;;;;;;5030553;28;20071;-89
2022/09/20 07:57:08;;;;;;;1.67;1.60;;;11.70;99.90;;;;;;5041741;28;20147;-88
2022/09/20 07:59:34;;;;;;;0.40;0.40;;;12.00;99.90;;;;;;5050714;28;20402;-90
2022/09/20 08:01:59;;;;;;;0.40;0.40;;;12.10;99.90;;;;;;5041248;28;20045;-89
2022/09/20 08:04:25;;;;;;;0.30;0.30;;;12.30;99.90;;;;;;5041750;28;20048;-89
2022/09/20 08:06:51;;;;;;;;;;;12.50;99.90;;;;;;5039353;28;20544;-88
2022/09/20 08:09:18;;;;;;;0.40;0.40;;;12.70;99.90;;;;;;5056977;28;19928;-88
2022/09/20 08:11:45;;;;;;;0.38;0.38;;;12.90;99.90;;;;;;5055557;28;20040;-89
2022/09/20 08:14:16;;;;;;;0.30;0.30;;;13.00;99.90;;;;;;5054424;28;20470;-88
2022/09/20 08:16:46;;;;;;;0.40;0.40;;;13.20;99.90;;;;;;5041258;28;20044;-88
2022/09/20 08:19:17;;;;;;;0.40;0.40;;;13.60;99.90;;;;;;5044843;28;20051;-89
2022/09/20 08:21:43;;;;;;;0.30;0.30;;;13.60;99.90;;;;;;5043404;28;20120;-86
2022/09/20 08:24:09;;;;;;;;;;;13.60;99.90;;;;;;5036766;28;20048;-88
2022/09/20 08:26:35;;;;;;;0.32;0.32;;;13.50;99.90;;;;;;5058015;28;19923;-87
2022/09/20 08:29:04;;;;;;;0.20;0.20;;;13.60;99.90;;;;;;5022108;28;20090;-85
2022/09/20 08:31:33;;;;;;;0.40;0.40;;;13.70;99.90;;;;;;5053945;28;20101;-86
2022/09/20 08:34:02;;;;;;;0.30;0.30;;;13.80;99.90;;;;;;5068189;28;20083;-86
2022/09/20 08:36:29;;;;;;;0.20;0.20;;;;;;;;;;5070024;28;20048;-87
2022/09/20 08:38:56;;;;;;;0.30;0.30;;;14.20;99.90;;;;;;5060631;28;20505;-88
2022/09/20 08:41:29;;;;;;;0.30;0.30;;;14.30;99.90;;;;;;5040782;28;21366;-89
2022/09/20 08:44:11;;;;;;;0.43;0.43;;;14.40;99.90;;;;;;5055614;28;20062;-86
2022/09/20 08:46:41;;;;;;;0.50;0.50;;;14.40;99.90;;;;;;5052201;28;20448;-88
2022/09/20 08:49:08;;;;;;;0.30;0.30;;;14.40;99.90;;;;;;5051300;28;20044;-88
2022/09/20 08:51:40;;;;;;;0.30;0.30;;;14.40;99.90;;;;;;5036550;28;20127;-86
2022/09/20 08:54:13;;;;;;;0.30;0.30;;;14.20;99.90;;;;;;5050270;28;20048;-88
2022/09/20 08:56:39;;;;;;;0.35;0.35;;;14.10;99.90;;;;;;5057212;28;20087;-86
2022/09/20 08:59:10;;;;;;;0.28;0.28;;;14.10;99.90;;;;;;5021150;28;20891;-86
2022/09/20 09:01:36;;;;;;;0.10;0.10;;;14.10;99.90;;;;;;5020873;28;20044;-87
2022/09/20 09:04:15;;;;;;;0.22;0.22;;;14.20;99.90;;;;;;5051147;28;20069;-88
2022/09/20 09:06:42;;;;;;;0.30;0.30;;;14.40;99.90;;;;;;5050395;28;20059;-88
2022/09/20 09:09:17;;;;;;;0.40;0.40;;;14.50;99.90;;;;;;5050888;28;20275;-87
2022/09/20 09:11:44;;;;;;;0.30;0.30;;;14.60;99.90;;;;;;5064850;28;20407;-88
2022/09/20 09:17:12;;;;;;;0.40;0.40;;;14.90;99.90;;;;;;5052520;28;20105;-87
2022/09/20 09:19:48;;;;;;;0.30;0.30;;;15.10;99.90;;;;;;5051946;28;20037;-87
2022/09/20 09:22:23;;;;;;;0.30;0.30;;;15.30;99.90;;;;;;5043441;28;20056;-88
2022/09/20 09:25:31;;;;;;;0.20;0.20;;;15.50;99.90;;;;;;5050053;28;21031;-87
2022/09/20 09:28:24;;;;;;;0.17;0.17;;;15.60;99.90;;;;;;5057809;28;20071;-86
2022/09/20 09:30:50;;;;;;;0.30;0.30;;;15.60;99.90;;;;;;5057782;28;20463;-86
2022/09/20 09:33:15;;;;;;;;;;;15.50;99.90;;;;;;5058797;28;20379;-86
2022/09/20 09:35:42;;;;;;;0.30;0.30;;;15.60;99.90;;;;;;5057311;28;19920;-86
2022/09/20 09:38:17;;;;;;;0.30;0.30;;;15.60;99.90;;;;;;5056722;28;20074;-86
2022/09/20 09:40:55;;;;;;;0.30;0.30;;;15.70;99.90;;;;;;5061003;28;20030;-87
2022/09/20 09:43:31;;;;;;;0.20;0.20;;;15.60;99.90;;;;;;5055626;28;20070;-88
2022/09/20 09:46:17;;;;;;;0.20;0.20;;;15.60;99.90;;;;;;5055435;28;20127;-87
2022/09/20 09:48:48;;;;;;;0.30;0.30;;;15.70;99.90;;;;;;5055714;28;20048;-86
2022/09/20 09:51:19;;;;;;;0.20;0.20;;;15.70;99.90;;;;;;5061485;28;21343;-86
2022/09/20 09:53:48;;;;;;;0.30;0.30;;;15.70;99.90;;;;;;5043330;28;20801;-87
2022/09/20 09:57:02;;;;;;;0.30;0.30;;;15.70;99.90;;;;;;5068366;28;20072;-87
2022/09/20 09:59:48;;;;;;;0.20;0.20;;;15.70;99.90;;;;;;5048362;28;20074;-86
2022/09/20 10:02:51;;;;;;;0.20;0.20;;;15.60;99.90;;;;;;5061259;28;20086;-86
2022/09/20 10:05:17;;;;;;;0.20;0.20;;;15.70;99.90;;;;;;5057918;28;20056;-86
2022/09/20 10:08:04;;;;;;;0.45;0.45;;;15.70;99.90;;;;;;5061007;28;20762;-86
2022/09/20 10:10:53;;;;;;;0.20;0.20;;;15.70;99.90;;;;;;5054910;28;20110;-85
2022/09/20 10:13:34;;;;;;;0.30;0.30;;;15.70;99.90;;;;;;5051750;28;21406;-87
2022/09/20 10:16:21;;;;;;;0.28;0.28;;;15.70;99.90;;;;;;5073321;28;20044;-85
2022/09/20 10:19:08;;;;;;;0.30;0.30;;;15.70;99.90;;;;;;5042306;28;20048;-89
2022/09/20 10:21:53;;;;;;;0.30;0.30;;;15.80;99.90;;;;;;5041323;28;20045;-88
2022/09/20 10:24:29;;;;;;;0.28;0.28;;;15.90;99.90;;;;;;5056301;28;20067;-90
2022/09/20 10:27:23;;;;;;;0.30;0.30;;;16.00;99.90;;;;;;5041778;28;20037;-88
2022/09/20 10:30:01;;;;;;;0.20;0.20;;;16.20;99.90;;;;;;5056101;28;20090;-88
2022/09/20 10:33:06;;;;;;;0.25;0.25;;;16.40;99.90;;;;;;5055251;28;20446;-89
2022/09/20 10:35:56;;;;;;;0.20;0.20;;;16.40;99.90;;;;;;5054928;28;20059;-88
2022/09/20 10:38:47;;;;;;;0.63;0.63;;;16.50;99.90;;;;;;5058200;28;20424;-88
2022/09/20 10:44:51;;;;;;;0.20;0.20;;;16.60;99.90;;;;;;5055063;28;20139;-89
2022/09/20 10:47:19;;;;;;;0.20;0.20;;;16.70;99.90;;;;;;5057637;28;20044;-88
2022/09/20 10:50:04;;;;;;;0.30;0.30;;;16.70;99.90;;;;;;5058512;28;21583;-86
2022/09/20 10:52:39;;;;;;;0.20;0.20;;;16.70;99.90;;;;;;5057872;28;20079;-87
2022/09/20 10:55:24;;;;;;;0.30;0.30;;;16.80;99.90;;;;;;5040535;28;20040;-88
2022/09/20 10:58:09;;;;;;;0.10;0.10;;;16.80;99.90;;;;;;5042442;28;20415;-88
2022/09/20 11:01:28;;;;;;;1.55;0.73;;;16.70;99.90;;;;;;5057756;28;20486;-90
2022/09/20 11:04:00;;;;;;;0.20;0.20;;;16.60;99.90;;;;;;5018437;28;21485;-87
2022/09/20 11:06:49;;;;;;;0.43;0.20;;;16.50;99.90;;;;;;5017459;28;20056;-90
2022/09/20 11:09:20;;;;;;;0.20;0.20;;;16.50;99.90;;;;;;5035125;28;20048;-88
2022/09/20 11:12:20;;;;;;;5.57;1.30;;;16.60;99.90;;;;;;5061826;28;20072;-86
2022/09/20 11:14:56;;;;;;;0.30;0.30;;;16.70;99.90;;;;;;5057074;28;20041;-89
2022/09/20 11:17:33;;;;;;;0.20;0.20;;;16.50;99.90;;;;;;5059873;28;20076;-88
2022/09/20 11:20:06;;;;;;;0.20;0.20;;;16.40;99.90;;;;;;5057880;28;20044;-90
2022/09/20 11:22:48;;;;;;;0.40;0.40;;;16.40;99.90;;;;;;5058932;28;20504;-85
2022/09/20 11:25:17;;;;;;;0.20;0.20;;;16.30;99.90;;;;;;5060727;28;20402;-88
2022/09/20 11:27:50;;;;;;;0.20;0.20;;;16.30;99.90;;;;;;5056037;28;20048;-87
2022/09/20 11:30:21;;;;;;;0.30;0.30;;;16.50;99.90;;;;;;5041558;28;20033;-88
2022/09/20 11:32:52;;;;;;;0.47;0.47;;;16.70;99.90;;;;;;5057574;28;20075;-89
2022/09/20 11:36:07;;;;;;;0.45;0.38;;;16.80;99.90;;;;;;5054443;28;20192;-88
2022/09/20 11:38:48;;;;;;;0.40;0.40;;;17.10;99.90;;;;;;5053780;28;20056;-89
2022/09/20 11:41:18;;;;;;;2.17;0.55;;;17.30;99.90;;;;;;5039104;28;20047;-88
2022/09/20 11:43:46;;;;;;;1.35;0.80;;;17.40;99.90;;;;;;5038012;28;20470;-89
2022/09/20 11:46:26;;;;;;;0.28;0.28;;;17.20;99.90;;;;;;5039561;28;20041;-87
2022/09/20 11:49:16;;;;;;;0.55;0.55;;;17.10;99.90;;;;;;5057684;28;20040;-88
2022/09/20 11:51:45;;;;;;;0.40;0.40;;;17.00;99.90;;;;;;5074003;28;20048;-86
2022/09/20 11:54:35;;;;;;;0.30;0.30;;;16.80;99.90;;;;;;5060467;28;20123;-88
2022/09/20 11:57:02;;;;;;;0.30;0.30;;;16.90;99.90;;;;;;5063944;28;20465;-89
2022/09/20 11:59:38;;;;;;;0.30;0.30;;;16.90;99.90;;;;;;5049903;28;20054;-88
2022/09/20 12:02:19;;;;;;;0.20;0.20;;;16.60;99.90;;;;;;5063351;28;20044;-87
2022/09/20 12:04:48;;;;;;;0.20;0.20;;;16.50;99.90;;;;;;5042735;28;20033;-87
2022/09/20 12:07:38;;;;;;;0.30;0.30;;;16.30;99.90;;;;;;5063584;28;20126;-87
2022/09/20 12:10:25;;;;;;;0.20;0.20;;;16.10;99.90;;;;;;5051460;28;20181;-88
2022/09/20 12:12:58;;;;;;;0.28;0.28;;;15.90;99.90;;;;;;5047457;28;20516;-88
2022/09/20 12:15:40;;;;;;;0.20;0.20;;;15.80;99.90;;;;;;5071879;28;20144;-86
2022/09/20 12:18:34;;;;;;;0.90;0.90;;;15.80;99.90;;;;;;5045680;28;20494;-87
2022/09/20 12:21:16;;;;;;;0.40;0.40;;;15.80;99.90;;;;;;5062268;28;20490;-88
2022/09/20 12:23:44;;;;;;;0.20;0.20;;;15.80;99.90;;;;;;5059335;28;20512;-89
2022/09/20 12:26:22;;;;;;;0.70;0.55;;;15.90;99.90;;;;;;5066065;28;20386;-87
2022/09/20 12:29:01;;;;;;;0.30;0.30;;;15.90;99.90;;;;;;5073128;28;20048;-87
2022/09/20 12:31:37;;;;;;;0.50;0.50;;;16.00;99.90;;;;;;5042980;28;20144;-87
2022/09/20 12:34:14;;;;;;;0.20;0.20;;;16.20;99.90;;;;;;5062140;28;20029;-87
2022/09/20 12:36:59;;;;;;;0.20;0.20;;;16.50;99.90;;;;;;5048932;28;20036;-88
2022/09/20 12:39:27;;;;;;;0.20;0.20;;;16.80;99.90;;;;;;5041498;28;20125;-87
2022/09/20 12:41:54;;;;;;;0.20;0.20;;;17.00;99.90;;;;;;5050426;28;20048;-88
2022/09/20 12:44:25;;;;;;;0.35;0.35;;;17.20;99.90;;;;;;5050289;28;20498;-90
2022/09/20 12:47:08;;;;;;;3.13;2.15;;;17.40;99.90;;;;;;5048125;28;20401;-88
2022/09/20 12:55:25;;;;;;;0.20;0.20;;;17.50;99.90;;;;;;5067453;28;20053;-86
2022/09/20 12:58:06;;;;;;;0.30;0.30;;;17.60;99.90;;;;;;5085281;28;20044;-86
2022/09/20 13:00:39;;;;;;;0.57;0.55;;;17.50;99.90;;;;;;5069845;28;20669;-86
2022/09/20 13:03:14;;;;;;;0.20;0.20;;;17.50;99.90;;;;;;5066178;28;20510;-87
2022/09/20 13:05:44;;;;;;;0.22;0.22;;;17.70;99.90;;;;;;5057145;28;20446;-86
2022/09/20 13:08:15;;;;;;;0.20;0.20;;;17.70;99.90;;;;;;5084319;28;20119;-89
2022/09/20 13:10:54;;;;;;;0.20;0.20;;;17.70;99.90;;;;;;5063439;28;20036;-88
2022/09/20 13:13:48;;;;;;;0.30;0.30;;;17.70;99.90;;;;;;5065368;28;20172;-86
2022/09/20 13:16:34;;;;;;;0.30;0.30;;;17.80;99.90;;;;;;5076867;28;20040;-87
2022/09/20 13:19:06;;;;;;;0.22;0.22;;;18.00;99.90;;;;;;5057581;28;20090;-88
2022/09/20 13:21:35;;;;;;;0.30;0.30;;;17.80;99.90;;;;;;5053396;28;20098;-87
2022/09/20 13:24:03;;;;;;;0.30;0.30;;;18.00;99.90;;;;;;5046393;28;20834;-88
2022/09/20 13:26:38;;;;;;;0.75;0.75;;;18.20;99.90;;;;;;5052621;28;20490;-90
2022/09/20 13:29:09;;;;;;;0.40;0.40;;;18.40;99.90;;;;;;5061844;28;20049;-88
2022/09/20 13:31:35;;;;;;;0.20;0.20;;;18.70;99.90;;;;;;5078335;28;20094;-87
2022/09/20 13:34:22;;;;;;;0.20;0.20;;;19.20;99.90;;;;;;5065703;28;20102;-87
2022/09/20 13:36:57;;;;;;;0.30;0.30;;;19.60;99.90;;;;;;5059712;28;20044;-87
2022/09/20 13:39:35;;;;;;;0.73;0.73;;;19.40;99.90;;;;;;5070534;28;20440;-87
2022/09/20 13:42:15;;;;;;;0.20;0.20;;;19.40;99.90;;;;;;5064916;28;20394;-86
2022/09/20 13:44:42;;;;;;;0.20;0.20;;;19.30;99.90;;;;;;5079698;28;20500;-87
2022/09/20 13:47:26;;;;;;;0.20;0.20;;;19.20;99.90;;;;;;5065432;28;20127;-86
2022/09/20 13:49:57;;;;;;;0.22;0.22;;;18.90;99.90;;;;;;5055271;28;20043;-87
2022/09/20 13:52:29;;;;;;;0.73;0.73;;;18.60;99.90;;;;;;5065686;28;20040;-87
2022/09/20 13:54:55;;;;;;;1.65;1.55;;;18.30;99.90;;;;;;5060688;28;20175;-88
2022/09/20 13:57:26;;;;;;;0.30;0.30;;;18.10;99.90;;;;;;5065385;28;20043;-88
2022/09/20 13:59:54;;;;;;;0.28;0.28;;;18.10;99.90;;;;;;5069098;28;20548;-86
2022/09/20 14:02:28;;;;;;;0.20;0.20;;;18.10;99.90;;;;;;5070935;28;20455;-86
2022/09/20 14:04:55;;;;;;;0.20;0.20;;;17.90;99.90;;;;;;5071396;28;20044;-87
2022/09/20 14:07:24;;;;;;;0.20;0.20;;;17.80;99.90;;;;;;5068158;28;20071;-86
2022/09/20 14:09:52;;;;;;;0.50;0.50;;;17.70;99.90;;;;;;5042753;28;20051;-87
2022/09/20 14:12:20;;;;;;;0.20;0.20;;;17.80;99.90;;;;;;5049908;28;21669;-87
2022/09/20 14:14:46;;;;;;;0.10;0.10;;;18.10;99.90;;;;;;5068726;28;20119;-87
2022/09/20 14:17:17;;;;;;;0.10;0.10;;;18.30;99.90;;;;;;5068337;28;20049;-87